sensor_id;sensor_type;location;lat;lon;timestamp;P1;durP1;ratioP1;P2;durP2;ratioP2
37455;SDS011;23316;50.718;7.328;2023-07-20T00:02:04;5.53;;;2.92;;
37455;SDS011;23316;50.718;7.328;2023-07-20T00:04:33;4.60;;;2.42;;
37455;SDS011;23316;50.718;7.328;2023-07-20T00:07:00;3.97;;;2.20;;
37455;SDS011;23316;50.718;7.328;2023-07-20T00:09:27;5.22;;;2.35;;
37455;SDS011;23316;50.718;7.328;2023-07-20T00:11:55;5.75;;;2.50;;
37455;SDS011;23316;50.718;7.328;2023-07-20T00:14:22;7.03;;;2.53;;
37455;SDS011;23316;50.718;7.328;2023-07-20T00:16:49;4.95;;;2.25;;
37455;SDS011;23316;50.718;7.328;2023-07-20T00:19:22;8.45;;;2.80;;
37455;SDS011;23316;50.718;7.328;2023-07-20T00:21:50;4.32;;;2.58;;
37455;SDS011;23316;50.718;7.328;2023-07-20T00:24:17;7.03;;;2.40;;
37455;SDS011;23316;50.718;7.328;2023-07-20T00:26:45;7.18;;;2.63;;
37455;SDS011;23316;50.718;7.328;2023-07-20T00:29:12;6.00;;;2.25;;
37455;SDS011;23316;50.718;7.328;2023-07-20T00:31:39;3.90;;;2.10;;
37455;SDS011;23316;50.718;7.328;2023-07-20T00:34:07;8.60;;;2.60;;
37455;SDS011;23316;50.718;7.328;2023-07-20T00:36:36;4.70;;;2.38;;
37455;SDS011;23316;50.718;7.328;2023-07-20T00:39:03;10.55;;;2.85;;
37455;SDS011;23316;50.718;7.328;2023-07-20T00:41:30;5.35;;;2.50;;
37455;SDS011;23316;50.718;7.328;2023-07-20T00:43:58;6.57;;;2.63;;
37455;SDS011;23316;50.718;7.328;2023-07-20T00:46:25;7.88;;;2.90;;
37455;SDS011;23316;50.718;7.328;2023-07-20T00:48:53;7.18;;;2.42;;
37455;SDS011;23316;50.718;7.328;2023-07-20T00:51:20;3.63;;;2.25;;
37455;SDS011;23316;50.718;7.328;2023-07-20T00:53:51;5.25;;;2.53;;
37455;SDS011;23316;50.718;7.328;2023-07-20T00:56:19;4.50;;;2.17;;
37455;SDS011;23316;50.718;7.328;2023-07-20T00:58:46;5.28;;;2.67;;
37455;SDS011;23316;50.718;7.328;2023-07-20T01:01:13;5.25;;;2.42;;
37455;SDS011;23316;50.718;7.328;2023-07-20T01:03:41;4.93;;;2.58;;
37455;SDS011;23316;50.718;7.328;2023-07-20T01:06:10;4.15;;;2.50;;
37455;SDS011;23316;50.718;7.328;2023-07-20T01:08:43;5.93;;;2.55;;
37455;SDS011;23316;50.718;7.328;2023-07-20T01:11:20;5.53;;;2.63;;
37455;SDS011;23316;50.718;7.328;2023-07-20T01:13:55;3.42;;;2.38;;
37455;SDS011;23316;50.718;7.328;2023-07-20T01:16:22;4.82;;;2.38;;
37455;SDS011;23316;50.718;7.328;2023-07-20T01:18:50;4.53;;;2.22;;
37455;SDS011;23316;50.718;7.328;2023-07-20T01:21:18;5.70;;;2.50;;
37455;SDS011;23316;50.718;7.328;2023-07-20T01:26:56;5.50;;;2.58;;
37455;SDS011;23316;50.718;7.328;2023-07-20T01:29:38;4.88;;;2.25;;
37455;SDS011;23316;50.718;7.328;2023-07-20T01:32:23;4.10;;;2.45;;
37455;SDS011;23316;50.718;7.328;2023-07-20T01:34:52;4.53;;;2.55;;
37455;SDS011;23316;50.718;7.328;2023-07-20T01:37:21;4.97;;;2.28;;
37455;SDS011;23316;50.718;7.328;2023-07-20T01:39:53;5.25;;;2.60;;
37455;SDS011;23316;50.718;7.328;2023-07-20T01:42:21;5.45;;;2.60;;
37455;SDS011;23316;50.718;7.328;2023-07-20T01:44:50;5.78;;;2.50;;
37455;SDS011;23316;50.718;7.328;2023-07-20T01:47:19;3.95;;;2.20;;
37455;SDS011;23316;50.718;7.328;2023-07-20T01:49:47;6.82;;;2.50;;
37455;SDS011;23316;50.718;7.328;2023-07-20T01:52:14;3.58;;;2.38;;
37455;SDS011;23316;50.718;7.328;2023-07-20T01:54:42;5.65;;;2.55;;
37455;SDS011;23316;50.718;7.328;2023-07-20T01:57:09;5.55;;;2.72;;
37455;SDS011;23316;50.718;7.328;2023-07-20T01:59:36;4.93;;;2.50;;
37455;SDS011;23316;50.718;7.328;2023-07-20T02:02:03;4.80;;;2.60;;
37455;SDS011;23316;50.718;7.328;2023-07-20T02:04:31;3.22;;;2.03;;
37455;SDS011;23316;50.718;7.328;2023-07-20T02:06:59;5.22;;;2.10;;
37455;SDS011;23316;50.718;7.328;2023-07-20T02:09:27;5.38;;;2.47;;
37455;SDS011;23316;50.718;7.328;2023-07-20T02:11:54;3.53;;;2.00;;
37455;SDS011;23316;50.718;7.328;2023-07-20T02:14:21;5.03;;;2.50;;
37455;SDS011;23316;50.718;7.328;2023-07-20T02:16:48;6.47;;;2.20;;
37455;SDS011;23316;50.718;7.328;2023-07-20T02:19:17;3.63;;;2.08;;
37455;SDS011;23316;50.718;7.328;2023-07-20T02:21:45;2.28;;;1.70;;
37455;SDS011;23316;50.718;7.328;2023-07-20T02:24:14;5.80;;;1.90;;
37455;SDS011;23316;50.718;7.328;2023-07-20T02:26:41;3.50;;;2.33;;
37455;SDS011;23316;50.718;7.328;2023-07-20T02:29:09;4.80;;;2.40;;
37455;SDS011;23316;50.718;7.328;2023-07-20T02:31:37;5.35;;;2.15;;
37455;SDS011;23316;50.718;7.328;2023-07-20T02:34:04;4.25;;;1.92;;
37455;SDS011;23316;50.718;7.328;2023-07-20T02:36:32;3.03;;;1.70;;
37455;SDS011;23316;50.718;7.328;2023-07-20T02:39:00;5.18;;;2.08;;
37455;SDS011;23316;50.718;7.328;2023-07-20T02:41:32;3.28;;;2.03;;
37455;SDS011;23316;50.718;7.328;2023-07-20T02:43:59;4.55;;;2.35;;
37455;SDS011;23316;50.718;7.328;2023-07-20T02:46:27;5.00;;;2.47;;
37455;SDS011;23316;50.718;7.328;2023-07-20T02:48:55;4.82;;;2.25;;
37455;SDS011;23316;50.718;7.328;2023-07-20T02:51:23;3.50;;;2.03;;
37455;SDS011;23316;50.718;7.328;2023-07-20T02:53:50;3.63;;;1.90;;
37455;SDS011;23316;50.718;7.328;2023-07-20T02:56:17;3.20;;;2.22;;
37455;SDS011;23316;50.718;7.328;2023-07-20T02:58:46;5.43;;;2.15;;
37455;SDS011;23316;50.718;7.328;2023-07-20T03:01:13;4.45;;;2.17;;
37455;SDS011;23316;50.718;7.328;2023-07-20T03:03:41;7.15;;;2.70;;
37455;SDS011;23316;50.718;7.328;2023-07-20T03:06:12;3.90;;;1.90;;
37455;SDS011;23316;50.718;7.328;2023-07-20T03:08:40;4.35;;;2.33;;
37455;SDS011;23316;50.718;7.328;2023-07-20T03:11:13;4.47;;;2.22;;
37455;SDS011;23316;50.718;7.328;2023-07-20T03:13:40;4.35;;;2.15;;
37455;SDS011;23316;50.718;7.328;2023-07-20T03:16:10;5.88;;;2.25;;
37455;SDS011;23316;50.718;7.328;2023-07-20T03:18:38;3.72;;;2.20;;
37455;SDS011;23316;50.718;7.328;2023-07-20T03:21:05;5.47;;;2.00;;
37455;SDS011;23316;50.718;7.328;2023-07-20T03:23:32;3.55;;;2.10;;
37455;SDS011;23316;50.718;7.328;2023-07-20T03:26:00;4.20;;;2.15;;
37455;SDS011;23316;50.718;7.328;2023-07-20T03:28:27;4.90;;;2.25;;
37455;SDS011;23316;50.718;7.328;2023-07-20T03:30:54;5.00;;;2.30;;
37455;SDS011;23316;50.718;7.328;2023-07-20T03:33:24;6.70;;;2.70;;
37455;SDS011;23316;50.718;7.328;2023-07-20T03:35:53;6.95;;;2.67;;
37455;SDS011;23316;50.718;7.328;2023-07-20T03:38:21;6.10;;;2.63;;
37455;SDS011;23316;50.718;7.328;2023-07-20T03:40:49;5.65;;;2.40;;
37455;SDS011;23316;50.718;7.328;2023-07-20T03:43:16;4.55;;;2.38;;
37455;SDS011;23316;50.718;7.328;2023-07-20T03:45:44;6.57;;;2.58;;
37455;SDS011;23316;50.718;7.328;2023-07-20T03:48:13;3.75;;;2.10;;
37455;SDS011;23316;50.718;7.328;2023-07-20T03:50:43;6.43;;;2.35;;
37455;SDS011;23316;50.718;7.328;2023-07-20T03:53:10;3.90;;;2.25;;
37455;SDS011;23316;50.718;7.328;2023-07-20T03:55:38;4.15;;;2.50;;
37455;SDS011;23316;50.718;7.328;2023-07-20T03:58:06;4.82;;;2.50;;
37455;SDS011;23316;50.718;7.328;2023-07-20T04:00:33;8.65;;;2.85;;
37455;SDS011;23316;50.718;7.328;2023-07-20T04:03:01;6.57;;;3.45;;
37455;SDS011;23316;50.718;7.328;2023-07-20T04:05:28;7.13;;;3.40;;
37455;SDS011;23316;50.718;7.328;2023-07-20T04:07:56;5.28;;;2.58;;
37455;SDS011;23316;50.718;7.328;2023-07-20T04:10:24;7.60;;;3.00;;
37455;SDS011;23316;50.718;7.328;2023-07-20T04:12:51;6.43;;;2.80;;
37455;SDS011;23316;50.718;7.328;2023-07-20T04:15:19;7.18;;;2.53;;
37455;SDS011;23316;50.718;7.328;2023-07-20T04:17:46;8.52;;;3.00;;
37455;SDS011;23316;50.718;7.328;2023-07-20T04:20:13;4.80;;;2.45;;
37455;SDS011;23316;50.718;7.328;2023-07-20T04:22:40;5.78;;;2.28;;
37455;SDS011;23316;50.718;7.328;2023-07-20T04:25:09;3.45;;;2.15;;
37455;SDS011;23316;50.718;7.328;2023-07-20T04:27:36;4.15;;;2.45;;
37455;SDS011;23316;50.718;7.328;2023-07-20T04:30:04;5.45;;;2.42;;
37455;SDS011;23316;50.718;7.328;2023-07-20T04:32:34;4.43;;;2.72;;
37455;SDS011;23316;50.718;7.328;2023-07-20T04:35:01;9.98;;;2.28;;
37455;SDS011;23316;50.718;7.328;2023-07-20T04:37:32;5.60;;;2.55;;
37455;SDS011;23316;50.718;7.328;2023-07-20T04:40:00;3.70;;;2.22;;
37455;SDS011;23316;50.718;7.328;2023-07-20T04:42:30;3.83;;;2.53;;
37455;SDS011;23316;50.718;7.328;2023-07-20T04:44:57;7.15;;;2.55;;
37455;SDS011;23316;50.718;7.328;2023-07-20T04:47:24;3.85;;;2.08;;
37455;SDS011;23316;50.718;7.328;2023-07-20T04:49:52;6.07;;;2.10;;
37455;SDS011;23316;50.718;7.328;2023-07-20T04:52:19;5.43;;;2.40;;
37455;SDS011;23316;50.718;7.328;2023-07-20T04:54:46;8.70;;;2.75;;
37455;SDS011;23316;50.718;7.328;2023-07-20T04:57:13;5.63;;;2.67;;
37455;SDS011;23316;50.718;7.328;2023-07-20T04:59:42;11.50;;;3.63;;
37455;SDS011;23316;50.718;7.328;2023-07-20T05:02:09;9.02;;;3.80;;
37455;SDS011;23316;50.718;7.328;2023-07-20T05:04:36;7.55;;;3.13;;
37455;SDS011;23316;50.718;7.328;2023-07-20T05:07:04;6.82;;;3.38;;
37455;SDS011;23316;50.718;7.328;2023-07-20T05:09:32;4.63;;;2.50;;
37455;SDS011;23316;50.718;7.328;2023-07-20T05:11:59;5.45;;;2.80;;
37455;SDS011;23316;50.718;7.328;2023-07-20T05:14:27;10.55;;;3.75;;
37455;SDS011;23316;50.718;7.328;2023-07-20T05:16:56;6.25;;;3.03;;
37455;SDS011;23316;50.718;7.328;2023-07-20T05:19:24;6.38;;;3.30;;
37455;SDS011;23316;50.718;7.328;2023-07-20T05:21:51;13.05;;;4.95;;
37455;SDS011;23316;50.718;7.328;2023-07-20T05:24:18;9.13;;;3.97;;
37455;SDS011;23316;50.718;7.328;2023-07-20T05:26:46;9.93;;;4.65;;
37455;SDS011;23316;50.718;7.328;2023-07-20T05:29:14;9.48;;;4.75;;
37455;SDS011;23316;50.718;7.328;2023-07-20T05:31:41;11.35;;;4.72;;
37455;SDS011;23316;50.718;7.328;2023-07-20T05:34:10;10.02;;;5.20;;
37455;SDS011;23316;50.718;7.328;2023-07-20T05:36:37;9.98;;;4.75;;
37455;SDS011;23316;50.718;7.328;2023-07-20T05:39:04;9.27;;;4.88;;
37455;SDS011;23316;50.718;7.328;2023-07-20T05:41:32;10.25;;;5.07;;
37455;SDS011;23316;50.718;7.328;2023-07-20T05:43:59;11.00;;;4.93;;
37455;SDS011;23316;50.718;7.328;2023-07-20T05:46:27;12.27;;;4.55;;
37455;SDS011;23316;50.718;7.328;2023-07-20T05:48:55;10.48;;;4.00;;
37455;SDS011;23316;50.718;7.328;2023-07-20T05:51:27;15.10;;;5.47;;
37455;SDS011;23316;50.718;7.328;2023-07-20T05:53:54;16.77;;;6.88;;
37455;SDS011;23316;50.718;7.328;2023-07-20T05:56:21;15.73;;;6.10;;
37455;SDS011;23316;50.718;7.328;2023-07-20T05:58:48;13.85;;;6.10;;
37455;SDS011;23316;50.718;7.328;2023-07-20T06:01:16;11.10;;;5.90;;
37455;SDS011;23316;50.718;7.328;2023-07-20T06:03:45;10.75;;;5.65;;
37455;SDS011;23316;50.718;7.328;2023-07-20T06:06:12;8.80;;;6.00;;
37455;SDS011;23316;50.718;7.328;2023-07-20T06:08:42;13.52;;;5.68;;
37455;SDS011;23316;50.718;7.328;2023-07-20T06:11:09;12.80;;;6.15;;
37455;SDS011;23316;50.718;7.328;2023-07-20T06:13:36;10.15;;;5.20;;
37455;SDS011;23316;50.718;7.328;2023-07-20T06:16:04;11.57;;;5.80;;
37455;SDS011;23316;50.718;7.328;2023-07-20T06:18:31;11.18;;;5.65;;
37455;SDS011;23316;50.718;7.328;2023-07-20T06:20:58;14.40;;;5.80;;
37455;SDS011;23316;50.718;7.328;2023-07-20T06:23:25;8.55;;;5.68;;
37455;SDS011;23316;50.718;7.328;2023-07-20T06:25:54;15.98;;;5.85;;
37455;SDS011;23316;50.718;7.328;2023-07-20T06:28:21;7.82;;;4.97;;
37455;SDS011;23316;50.718;7.328;2023-07-20T06:30:49;10.48;;;5.20;;
37455;SDS011;23316;50.718;7.328;2023-07-20T06:33:16;10.43;;;5.65;;
37455;SDS011;23316;50.718;7.328;2023-07-20T06:35:43;11.85;;;5.72;;
37455;SDS011;23316;50.718;7.328;2023-07-20T06:38:10;13.20;;;5.32;;
37455;SDS011;23316;50.718;7.328;2023-07-20T06:40:38;13.70;;;5.10;;
37455;SDS011;23316;50.718;7.328;2023-07-20T06:43:06;10.55;;;5.13;;
37455;SDS011;23316;50.718;7.328;2023-07-20T06:45:33;11.98;;;5.60;;
37455;SDS011;23316;50.718;7.328;2023-07-20T06:48:01;10.52;;;5.35;;
37455;SDS011;23316;50.718;7.328;2023-07-20T06:50:29;10.07;;;5.28;;
37455;SDS011;23316;50.718;7.328;2023-07-20T06:52:56;8.85;;;5.15;;
37455;SDS011;23316;50.718;7.328;2023-07-20T06:55:24;13.80;;;4.85;;
37455;SDS011;23316;50.718;7.328;2023-07-20T06:57:51;11.65;;;5.25;;
37455;SDS011;23316;50.718;7.328;2023-07-20T07:00:20;8.98;;;4.30;;
37455;SDS011;23316;50.718;7.328;2023-07-20T07:02:47;16.05;;;6.10;;
37455;SDS011;23316;50.718;7.328;2023-07-20T07:05:15;11.10;;;4.95;;
37455;SDS011;23316;50.718;7.328;2023-07-20T07:07:42;8.77;;;4.15;;
37455;SDS011;23316;50.718;7.328;2023-07-20T07:10:09;12.85;;;4.55;;
37455;SDS011;23316;50.718;7.328;2023-07-20T07:12:36;8.35;;;4.47;;
37455;SDS011;23316;50.718;7.328;2023-07-20T07:15:04;10.05;;;4.47;;
37455;SDS011;23316;50.718;7.328;2023-07-20T07:17:33;11.82;;;4.55;;
37455;SDS011;23316;50.718;7.328;2023-07-20T07:20:01;7.88;;;3.83;;
37455;SDS011;23316;50.718;7.328;2023-07-20T07:22:29;8.82;;;4.35;;
37455;SDS011;23316;50.718;7.328;2023-07-20T07:24:56;9.82;;;4.80;;
37455;SDS011;23316;50.718;7.328;2023-07-20T07:27:24;16.65;;;4.88;;
37455;SDS011;23316;50.718;7.328;2023-07-20T07:29:51;8.23;;;4.72;;
37455;SDS011;23316;50.718;7.328;2023-07-20T07:32:18;14.02;;;6.00;;
37455;SDS011;23316;50.718;7.328;2023-07-20T07:34:47;8.48;;;4.00;;
37455;SDS011;23316;50.718;7.328;2023-07-20T07:37:14;10.35;;;4.57;;
37455;SDS011;23316;50.718;7.328;2023-07-20T07:39:41;8.93;;;6.00;;
37455;SDS011;23316;50.718;7.328;2023-07-20T07:42:09;9.07;;;5.22;;
37455;SDS011;23316;50.718;7.328;2023-07-20T07:44:36;9.85;;;5.68;;
37455;SDS011;23316;50.718;7.328;2023-07-20T07:47:03;14.27;;;6.72;;
37455;SDS011;23316;50.718;7.328;2023-07-20T07:49:31;8.73;;;5.63;;
37455;SDS011;23316;50.718;7.328;2023-07-20T07:51:59;8.73;;;4.47;;
37455;SDS011;23316;50.718;7.328;2023-07-20T07:54:27;11.32;;;5.80;;
37455;SDS011;23316;50.718;7.328;2023-07-20T07:56:55;10.65;;;6.30;;
37455;SDS011;23316;50.718;7.328;2023-07-20T07:59:22;8.93;;;5.18;;
37455;SDS011;23316;50.718;7.328;2023-07-20T08:01:50;9.10;;;5.20;;
37455;SDS011;23316;50.718;7.328;2023-07-20T08:04:17;7.90;;;5.03;;
37455;SDS011;23316;50.718;7.328;2023-07-20T08:06:45;7.53;;;4.75;;
37455;SDS011;23316;50.718;7.328;2023-07-20T08:09:13;8.07;;;5.55;;
37455;SDS011;23316;50.718;7.328;2023-07-20T08:11:41;9.20;;;5.97;;
37455;SDS011;23316;50.718;7.328;2023-07-20T08:14:08;13.32;;;6.63;;
37455;SDS011;23316;50.718;7.328;2023-07-20T08:16:35;13.85;;;7.28;;
37455;SDS011;23316;50.718;7.328;2023-07-20T08:19:02;12.75;;;6.68;;
37455;SDS011;23316;50.718;7.328;2023-07-20T08:21:29;10.43;;;7.03;;
37455;SDS011;23316;50.718;7.328;2023-07-20T08:23:57;9.85;;;5.88;;
37455;SDS011;23316;50.718;7.328;2023-07-20T08:26:25;8.30;;;5.65;;
37455;SDS011;23316;50.718;7.328;2023-07-20T08:28:52;9.75;;;6.53;;
37455;SDS011;23316;50.718;7.328;2023-07-20T08:31:20;7.78;;;5.18;;
37455;SDS011;23316;50.718;7.328;2023-07-20T08:33:47;8.27;;;5.05;;
37455;SDS011;23316;50.718;7.328;2023-07-20T08:36:15;8.57;;;4.45;;
37455;SDS011;23316;50.718;7.328;2023-07-20T08:38:43;8.45;;;4.70;;
37455;SDS011;23316;50.718;7.328;2023-07-20T08:41:10;7.03;;;5.07;;
37455;SDS011;23316;50.718;7.328;2023-07-20T08:43:39;5.45;;;4.57;;
37455;SDS011;23316;50.718;7.328;2023-07-20T08:46:09;7.22;;;3.92;;
37455;SDS011;23316;50.718;7.328;2023-07-20T08:48:40;6.70;;;4.25;;
37455;SDS011;23316;50.718;7.328;2023-07-20T08:51:08;7.30;;;3.42;;
37455;SDS011;23316;50.718;7.328;2023-07-20T08:53:38;6.72;;;2.83;;
37455;SDS011;23316;50.718;7.328;2023-07-20T08:56:05;8.68;;;4.45;;
37455;SDS011;23316;50.718;7.328;2023-07-20T08:58:36;5.20;;;2.80;;
37455;SDS011;23316;50.718;7.328;2023-07-20T09:01:06;4.25;;;2.92;;
37455;SDS011;23316;50.718;7.328;2023-07-20T09:03:34;6.40;;;3.40;;
37455;SDS011;23316;50.718;7.328;2023-07-20T09:06:04;5.35;;;4.30;;
37455;SDS011;23316;50.718;7.328;2023-07-20T09:08:32;6.43;;;3.67;;
37455;SDS011;23316;50.718;7.328;2023-07-20T09:10:59;4.15;;;2.97;;
37455;SDS011;23316;50.718;7.328;2023-07-20T09:13:26;6.05;;;4.20;;
37455;SDS011;23316;50.718;7.328;2023-07-20T09:15:55;5.63;;;3.42;;
37455;SDS011;23316;50.718;7.328;2023-07-20T09:18:24;8.85;;;4.20;;
37455;SDS011;23316;50.718;7.328;2023-07-20T09:24:04;5.35;;;2.80;;
37455;SDS011;23316;50.718;7.328;2023-07-20T09:26:35;7.20;;;2.50;;
37455;SDS011;23316;50.718;7.328;2023-07-20T09:29:08;3.10;;;2.63;;
37455;SDS011;23316;50.718;7.328;2023-07-20T09:31:37;7.85;;;3.28;;
37455;SDS011;23316;50.718;7.328;2023-07-20T09:34:05;4.45;;;3.08;;
37455;SDS011;23316;50.718;7.328;2023-07-20T09:36:33;5.07;;;3.00;;
37455;SDS011;23316;50.718;7.328;2023-07-20T09:39:02;5.88;;;3.10;;
37455;SDS011;23316;50.718;7.328;2023-07-20T09:41:30;4.38;;;3.30;;
37455;SDS011;23316;50.718;7.328;2023-07-20T09:44:06;7.28;;;3.50;;
37455;SDS011;23316;50.718;7.328;2023-07-20T09:46:43;4.88;;;3.30;;
37455;SDS011;23316;50.718;7.328;2023-07-20T09:49:11;3.15;;;2.22;;
37455;SDS011;23316;50.718;7.328;2023-07-20T09:51:39;4.70;;;2.50;;
37455;SDS011;23316;50.718;7.328;2023-07-20T09:54:07;4.32;;;2.70;;
37455;SDS011;23316;50.718;7.328;2023-07-20T09:56:35;4.53;;;2.63;;
37455;SDS011;23316;50.718;7.328;2023-07-20T09:59:03;4.57;;;2.15;;
37455;SDS011;23316;50.718;7.328;2023-07-20T10:01:30;7.10;;;2.20;;
37455;SDS011;23316;50.718;7.328;2023-07-20T10:04:04;4.82;;;2.60;;
37455;SDS011;23316;50.718;7.328;2023-07-20T10:06:35;4.78;;;2.72;;
37455;SDS011;23316;50.718;7.328;2023-07-20T10:09:06;5.25;;;2.53;;
37455;SDS011;23316;50.718;7.328;2023-07-20T10:11:34;4.15;;;2.08;;
37455;SDS011;23316;50.718;7.328;2023-07-20T10:14:03;6.30;;;2.65;;
37455;SDS011;23316;50.718;7.328;2023-07-20T10:16:34;4.95;;;2.17;;
37455;SDS011;23316;50.718;7.328;2023-07-20T10:19:05;4.97;;;2.80;;
37455;SDS011;23316;50.718;7.328;2023-07-20T10:21:35;2.55;;;2.03;;
37455;SDS011;23316;50.718;7.328;2023-07-20T10:24:06;2.22;;;1.73;;
37455;SDS011;23316;50.718;7.328;2023-07-20T10:26:36;5.40;;;2.20;;
37455;SDS011;23316;50.718;7.328;2023-07-20T10:29:04;3.20;;;2.22;;
37455;SDS011;23316;50.718;7.328;2023-07-20T10:31:33;4.57;;;1.70;;
37455;SDS011;23316;50.718;7.328;2023-07-20T10:34:01;3.78;;;1.90;;
37455;SDS011;23316;50.718;7.328;2023-07-20T10:36:30;4.63;;;2.08;;
37455;SDS011;23316;50.718;7.328;2023-07-20T10:38:57;8.30;;;2.20;;
37455;SDS011;23316;50.718;7.328;2023-07-20T10:41:29;4.28;;;1.70;;
37455;SDS011;23316;50.718;7.328;2023-07-20T10:44:00;3.20;;;2.20;;
37455;SDS011;23316;50.718;7.328;2023-07-20T10:46:36;9.07;;;2.00;;
37455;SDS011;23316;50.718;7.328;2023-07-20T10:49:10;5.90;;;2.33;;
37455;SDS011;23316;50.718;7.328;2023-07-20T10:51:40;3.65;;;1.80;;
37455;SDS011;23316;50.718;7.328;2023-07-20T10:54:08;3.88;;;2.10;;
37455;SDS011;23316;50.718;7.328;2023-07-20T10:56:56;4.80;;;2.05;;
37455;SDS011;23316;50.718;7.328;2023-07-20T10:59:45;3.70;;;2.10;;
37455;SDS011;23316;50.718;7.328;2023-07-20T11:02:17;3.22;;;1.83;;
37455;SDS011;23316;50.718;7.328;2023-07-20T11:04:45;2.47;;;1.40;;
37455;SDS011;23316;50.718;7.328;2023-07-20T11:07:17;7.03;;;2.67;;
37455;SDS011;23316;50.718;7.328;2023-07-20T11:10:12;4.00;;;2.40;;
37455;SDS011;23316;50.718;7.328;2023-07-20T11:12:40;4.95;;;1.92;;
37455;SDS011;23316;50.718;7.328;2023-07-20T11:15:08;3.03;;;1.70;;
37455;SDS011;23316;50.718;7.328;2023-07-20T11:17:35;3.95;;;2.20;;
37455;SDS011;23316;50.718;7.328;2023-07-20T11:20:04;5.22;;;2.22;;
37455;SDS011;23316;50.718;7.328;2023-07-20T11:22:33;2.90;;;1.88;;
37455;SDS011;23316;50.718;7.328;2023-07-20T11:25:02;4.78;;;2.38;;
37455;SDS011;23316;50.718;7.328;2023-07-20T11:27:43;4.72;;;1.90;;
37455;SDS011;23316;50.718;7.328;2023-07-20T11:30:15;3.90;;;1.50;;
37455;SDS011;23316;50.718;7.328;2023-07-20T11:32:47;1.75;;;1.40;;
37455;SDS011;23316;50.718;7.328;2023-07-20T11:35:14;2.65;;;1.48;;
37455;SDS011;23316;50.718;7.328;2023-07-20T11:37:43;3.28;;;1.67;;
37455;SDS011;23316;50.718;7.328;2023-07-20T11:40:10;3.97;;;1.85;;
37455;SDS011;23316;50.718;7.328;2023-07-20T11:42:38;3.67;;;1.30;;
37455;SDS011;23316;50.718;7.328;2023-07-20T11:45:06;2.20;;;1.40;;
37455;SDS011;23316;50.718;7.328;2023-07-20T11:47:34;5.85;;;1.35;;
37455;SDS011;23316;50.718;7.328;2023-07-20T11:50:07;2.53;;;1.40;;
37455;SDS011;23316;50.718;7.328;2023-07-20T11:52:36;4.80;;;1.63;;
37455;SDS011;23316;50.718;7.328;2023-07-20T11:55:06;7.18;;;1.50;;
37455;SDS011;23316;50.718;7.328;2023-07-20T11:57:34;2.53;;;1.50;;
37455;SDS011;23316;50.718;7.328;2023-07-20T12:00:02;3.80;;;1.63;;
37455;SDS011;23316;50.718;7.328;2023-07-20T12:02:34;4.65;;;1.45;;
37455;SDS011;23316;50.718;7.328;2023-07-20T12:05:02;2.92;;;1.50;;
37455;SDS011;23316;50.718;7.328;2023-07-20T12:07:34;4.53;;;1.90;;
37455;SDS011;23316;50.718;7.328;2023-07-20T12:10:03;7.55;;;1.92;;
37455;SDS011;23316;50.718;7.328;2023-07-20T12:12:32;2.90;;;2.22;;
37455;SDS011;23316;50.718;7.328;2023-07-20T12:15:13;5.15;;;2.20;;
37455;SDS011;23316;50.718;7.328;2023-07-20T12:17:44;4.05;;;1.70;;
37455;SDS011;23316;50.718;7.328;2023-07-20T12:20:11;4.13;;;1.70;;
37455;SDS011;23316;50.718;7.328;2023-07-20T12:22:39;2.63;;;1.40;;
37455;SDS011;23316;50.718;7.328;2023-07-20T12:25:09;5.05;;;1.75;;
37455;SDS011;23316;50.718;7.328;2023-07-20T12:27:36;2.92;;;1.50;;
37455;SDS011;23316;50.718;7.328;2023-07-20T12:30:04;5.03;;;2.25;;
37455;SDS011;23316;50.718;7.328;2023-07-20T12:32:33;2.88;;;1.73;;
37455;SDS011;23316;50.718;7.328;2023-07-20T12:35:00;2.95;;;1.58;;
37455;SDS011;23316;50.718;7.328;2023-07-20T12:37:28;4.03;;;2.00;;
37455;SDS011;23316;50.718;7.328;2023-07-20T12:39:55;3.58;;;2.20;;
37455;SDS011;23316;50.718;7.328;2023-07-20T12:42:23;3.13;;;2.13;;
37455;SDS011;23316;50.718;7.328;2023-07-20T12:44:51;4.93;;;1.90;;
37455;SDS011;23316;50.718;7.328;2023-07-20T12:47:18;2.92;;;1.70;;
37455;SDS011;23316;50.718;7.328;2023-07-20T12:49:46;6.47;;;1.80;;
37455;SDS011;23316;50.718;7.328;2023-07-20T12:52:13;2.75;;;1.70;;
37455;SDS011;23316;50.718;7.328;2023-07-20T12:54:40;4.25;;;1.23;;
37455;SDS011;23316;50.718;7.328;2023-07-20T12:57:07;5.93;;;2.00;;
37455;SDS011;23316;50.718;7.328;2023-07-20T12:59:36;1.98;;;1.60;;
37455;SDS011;23316;50.718;7.328;2023-07-20T13:02:03;3.60;;;1.77;;
37455;SDS011;23316;50.718;7.328;2023-07-20T13:04:31;4.50;;;2.35;;
37455;SDS011;23316;50.718;7.328;2023-07-20T13:06:58;4.68;;;1.58;;
37455;SDS011;23316;50.718;7.328;2023-07-20T13:09:26;2.80;;;1.35;;
37455;SDS011;23316;50.718;7.328;2023-07-20T13:11:53;3.30;;;1.48;;
37455;SDS011;23316;50.718;7.328;2023-07-20T13:14:22;3.22;;;1.63;;
37455;SDS011;23316;50.718;7.328;2023-07-20T13:16:51;1.90;;;1.67;;
37455;SDS011;23316;50.718;7.328;2023-07-20T13:19:18;2.53;;;1.40;;
37455;SDS011;23316;50.718;7.328;2023-07-20T13:21:45;2.10;;;1.38;;
37455;SDS011;23316;50.718;7.328;2023-07-20T13:24:13;2.88;;;1.30;;
37455;SDS011;23316;50.718;7.328;2023-07-20T13:26:40;5.63;;;1.58;;
37455;SDS011;23316;50.718;7.328;2023-07-20T13:29:07;2.35;;;1.40;;
37455;SDS011;23316;50.718;7.328;2023-07-20T13:31:35;1.58;;;1.40;;
37455;SDS011;23316;50.718;7.328;2023-07-20T13:34:03;4.35;;;1.45;;
37455;SDS011;23316;50.718;7.328;2023-07-20T13:36:31;2.65;;;1.05;;
37455;SDS011;23316;50.718;7.328;2023-07-20T13:38:58;4.50;;;1.33;;
37455;SDS011;23316;50.718;7.328;2023-07-20T13:41:25;2.10;;;1.42;;
37455;SDS011;23316;50.718;7.328;2023-07-20T13:43:53;2.70;;;1.50;;
37455;SDS011;23316;50.718;7.328;2023-07-20T13:46:20;5.20;;;1.42;;
37455;SDS011;23316;50.718;7.328;2023-07-20T13:48:47;2.65;;;1.00;;
37455;SDS011;23316;50.718;7.328;2023-07-20T13:51:16;5.68;;;1.15;;
37455;SDS011;23316;50.718;7.328;2023-07-20T13:53:44;7.22;;;1.27;;
37455;SDS011;23316;50.718;7.328;2023-07-20T13:56:12;5.93;;;1.40;;
37455;SDS011;23316;50.718;7.328;2023-07-20T13:58:39;2.80;;;1.40;;
37455;SDS011;23316;50.718;7.328;2023-07-20T14:01:06;1.95;;;1.33;;
37455;SDS011;23316;50.718;7.328;2023-07-20T14:03:33;3.15;;;1.65;;
37455;SDS011;23316;50.718;7.328;2023-07-20T14:06:01;2.92;;;1.60;;
37455;SDS011;23316;50.718;7.328;2023-07-20T14:08:29;2.63;;;1.50;;
37455;SDS011;23316;50.718;7.328;2023-07-20T14:10:56;4.10;;;1.38;;
37455;SDS011;23316;50.718;7.328;2023-07-20T14:13:24;3.53;;;1.60;;
37455;SDS011;23316;50.718;7.328;2023-07-20T14:15:51;3.13;;;1.17;;
37455;SDS011;23316;50.718;7.328;2023-07-20T14:18:18;2.22;;;1.23;;
37455;SDS011;23316;50.718;7.328;2023-07-20T14:20:45;2.42;;;1.08;;
37455;SDS011;23316;50.718;7.328;2023-07-20T14:23:13;2.53;;;1.17;;
37455;SDS011;23316;50.718;7.328;2023-07-20T14:25:41;2.85;;;1.17;;
37455;SDS011;23316;50.718;7.328;2023-07-20T14:28:08;2.28;;;1.10;;
37455;SDS011;23316;50.718;7.328;2023-07-20T14:30:36;2.95;;;1.10;;
37455;SDS011;23316;50.718;7.328;2023-07-20T14:33:03;1.33;;;1.08;;
37455;SDS011;23316;50.718;7.328;2023-07-20T14:35:30;1.58;;;1.08;;
37455;SDS011;23316;50.718;7.328;2023-07-20T14:37:58;1.85;;;1.05;;
37455;SDS011;23316;50.718;7.328;2023-07-20T14:40:25;1.25;;;1.00;;
37455;SDS011;23316;50.718;7.328;2023-07-20T14:42:55;1.60;;;0.90;;
37455;SDS011;23316;50.718;7.328;2023-07-20T14:45:22;2.30;;;1.30;;
37455;SDS011;23316;50.718;7.328;2023-07-20T14:47:49;2.95;;;1.13;;
37455;SDS011;23316;50.718;7.328;2023-07-20T14:50:19;2.10;;;1.38;;
37455;SDS011;23316;50.718;7.328;2023-07-20T14:52:47;2.47;;;1.05;;
37455;SDS011;23316;50.718;7.328;2023-07-20T14:55:14;2.30;;;1.05;;
37455;SDS011;23316;50.718;7.328;2023-07-20T14:57:42;1.80;;;0.98;;
37455;SDS011;23316;50.718;7.328;2023-07-20T15:00:12;1.98;;;0.93;;